Alkali Lake, Canada
Current Conditions -  °F | °C
As of 8:00 PM on Friday 19 Dec 2014 (Local Time) from CYWL Reporting Station
Broken Clouds Broken Clouds  
Wind Chill: 23°   Ceiling: 12000
Heat Index: 32°   Visibility: 15mi
Dew Point: 27°   Wind: 13mph
Humidity: 80%   Direction: 120°ESE
Pressure: 29.68"   Gusts: NA
Location:  51.77°N, 122.3°W
Report Text: CYWL 200400Z 12011KT 15SM BKN120 00/M03 A2968 RMK AC6 SLP084
Loading
Personal Weather Stations






























Interactive Weather Map New forecast layout! Learn more

10-Day Weather Forecast

Advertisements
Track Severe Weather on mobile